Time;durP1;ratioP1;P1;durP2;ratioP2;P2;SDS_P1;SDS_P2;PMS_P1;PMS_P2;Temp;Humidity;BMP_temperature;BMP_pressure;BME280_temperature;BME280_humidity;BME280_pressure;Samples;Min_cycle;Max_cycle;Signal;HPM_P1;HPM_P2
2022/12/22 03:25:56;;;;;;;44.10;27.38;;;8.80;99.90;;;;;;5076094;28;20067;-68
2022/12/22 03:28:27;;;;;;;42.45;25.55;;;9.00;99.90;;;;;;5086106;28;20072;-68
2022/12/22 03:30:55;;;;;;;44.28;27.67;;;8.90;99.90;;;;;;5065901;28;20154;-68
2022/12/22 03:33:21;;;;;;;44.40;27.17;;;9.00;99.90;;;;;;5066764;28;20064;-68
2022/12/22 03:35:47;;;;;;;47.25;27.45;;;8.80;99.90;;;;;;5066012;28;20112;-68
2022/12/22 03:38:13;;;;;;;46.72;27.35;;;9.00;99.90;;;;;;5062370;28;20044;-68
2022/12/22 03:40:38;;;;;;;46.85;27.67;;;8.80;99.90;;;;;;5053206;28;20106;-68
2022/12/22 03:48:38;;;;;;;48.25;28.27;;;8.80;99.90;;;;;;5064834;28;20682;-68
2022/12/22 03:51:04;;;;;;;46.08;26.88;;;8.90;99.90;;;;;;5052807;28;20080;-68
2022/12/22 03:53:30;;;;;;;45.22;27.52;;;8.90;99.90;;;;;;5057253;28;20044;-68
2022/12/22 03:55:55;;;;;;;48.35;28.15;;;9.00;99.90;;;;;;5049516;28;20041;-68
2022/12/22 03:58:21;;;;;;;48.47;27.02;;;8.70;99.90;;;;;;5075505;28;20097;-68
2022/12/22 04:00:47;;;;;;;48.83;29.35;;;8.90;99.90;;;;;;5066940;28;20040;-68
2022/12/22 04:03:13;;;;;;;46.92;26.70;;;8.90;99.90;;;;;;5065620;28;20040;-68
2022/12/22 04:05:38;;;;;;;51.72;28.88;;;8.70;99.90;;;;;;5074448;28;20053;-68
2022/12/22 04:08:04;;;;;;;46.58;26.42;;;8.90;99.90;;;;;;5073895;28;20040;-68
2022/12/22 04:13:15;;;;;;;42.42;26.17;;;8.80;99.90;;;;;;5054124;28;20060;-68
2022/12/22 04:15:40;;;;;;;38.17;24.35;;;8.60;99.90;;;;;;5064855;28;20037;-68
2022/12/22 04:18:06;;;;;;;49.85;26.98;;;8.70;99.90;;;;;;5051012;28;20052;-67
2022/12/22 04:20:32;;;;;;;48.35;26.85;;;8.80;99.90;;;;;;5050813;28;20052;-68
2022/12/22 04:22:58;;;;;;;49.97;26.02;;;8.70;99.90;;;;;;5072954;28;20037;-68
2022/12/22 04:25:25;;;;;;;48.08;26.25;;;8.80;99.90;;;;;;5047463;28;20041;-68
2022/12/22 04:27:50;;;;;;;52.08;28.60;;;8.60;99.90;;;;;;5047315;28;20555;-68
2022/12/22 04:30:16;;;;;;;53.83;28.33;;;8.60;99.90;;;;;;5082716;28;20052;-68
2022/12/22 04:32:42;;;;;;;53.42;28.80;;;8.60;99.90;;;;;;5073896;28;20056;-68
2022/12/22 04:35:09;;;;;;;59.38;29.35;;;8.60;99.90;;;;;;5063737;28;20124;-68
2022/12/22 04:37:35;;;;;;;48.72;27.15;;;8.60;99.90;;;;;;5054018;28;20047;-68
2022/12/22 04:40:00;;;;;;;62.55;27.83;;;8.70;99.90;;;;;;5063649;28;20068;-68
2022/12/22 04:42:26;;;;;;;47.17;27.60;;;8.50;99.90;;;;;;5054893;28;20076;-68
2022/12/22 04:44:52;;;;;;;50.17;27.05;;;8.50;99.90;;;;;;5049201;28;20075;-68
2022/12/22 04:47:18;;;;;;;59.70;27.55;;;8.60;99.90;;;;;;5073276;28;20059;-68
2022/12/22 04:49:44;;;;;;;49.03;26.17;;;8.70;99.90;;;;;;5042947;28;20074;-68
2022/12/22 04:52:09;;;;;;;46.63;25.58;;;8.50;99.90;;;;;;5051140;28;20080;-68
2022/12/22 04:54:35;;;;;;;48.30;26.30;;;8.50;99.90;;;;;;5065904;28;20051;-68
2022/12/22 04:57:01;;;;;;;68.03;27.95;;;8.50;99.90;;;;;;5059514;28;20040;-68
2022/12/22 04:59:27;;;;;;;58.65;27.30;;;8.60;99.90;;;;;;5062355;28;20053;-68
2022/12/22 05:01:52;;;;;;;49.38;25.85;;;8.70;99.90;;;;;;5072951;28;20045;-68
2022/12/22 05:04:18;;;;;;;56.42;25.45;;;8.60;99.90;;;;;;5040543;28;20052;-68
2022/12/22 05:06:44;;;;;;;38.67;23.60;;;8.50;99.90;;;;;;5062831;28;20048;-68
2022/12/22 05:09:10;;;;;;;37.80;23.70;;;8.50;99.90;;;;;;5047405;28;20081;-70
2022/12/22 05:11:37;;;;;;;66.40;27.52;;;8.70;99.90;;;;;;5051999;28;20057;-69
2022/12/22 05:14:02;;;;;;;37.28;23.05;;;8.60;99.90;;;;;;5083140;28;20040;-69
2022/12/22 05:16:28;;;;;;;34.38;22.45;;;8.70;99.90;;;;;;5047707;28;20116;-69
2022/12/22 05:18:54;;;;;;;36.13;22.50;;;8.60;99.90;;;;;;5063573;28;20373;-68
2022/12/22 05:21:21;;;;;;;34.47;23.55;;;8.70;99.90;;;;;;5065888;28;20060;-69
2022/12/22 05:23:48;;;;;;;41.38;23.38;;;8.70;99.90;;;;;;5065256;28;20055;-68
2022/12/22 05:26:14;;;;;;;40.45;23.95;;;8.60;99.90;;;;;;5058295;28;20045;-68
2022/12/22 05:28:42;;;;;;;36.38;24.10;;;8.60;99.90;;;;;;5046016;28;20044;-68
2022/12/22 05:31:16;;;;;;;37.22;22.63;;;8.70;99.90;;;;;;5058876;28;20596;-70
2022/12/22 05:33:42;;;;;;;33.13;21.10;;;8.70;99.90;;;;;;5070339;28;20041;-66
2022/12/22 05:36:08;;;;;;;36.60;23.27;;;8.80;99.90;;;;;;5032091;28;20056;-65
2022/12/22 05:38:34;;;;;;;34.95;22.83;;;8.80;99.90;;;;;;5050957;28;20041;-67
2022/12/22 05:40:59;;;;;;;37.05;23.38;;;8.70;99.90;;;;;;5058132;28;20037;-67
2022/12/22 05:43:25;;;;;;;42.08;25.60;;;8.80;99.90;;;;;;5041212;28;20101;-66
2022/12/22 05:45:52;;;;;;;39.72;23.67;;;8.60;99.90;;;;;;5082791;28;20099;-66
2022/12/22 05:48:18;;;;;;;41.25;24.48;;;8.60;99.90;;;;;;5080821;28;20044;-68
2022/12/22 05:50:44;;;;;;;45.10;25.10;;;8.70;99.90;;;;;;5057462;28;20041;-67
2022/12/22 05:53:10;;;;;;;48.03;24.70;;;8.70;99.90;;;;;;5064389;28;20549;-64
2022/12/22 05:55:35;;;;;;;47.17;25.67;;;8.60;99.90;;;;;;5059751;28;20381;-65
2022/12/22 05:58:01;;;;;;;52.03;25.98;;;8.60;99.90;;;;;;5054105;28;20040;-64
2022/12/22 06:00:29;;;;;;;51.72;25.65;;;8.70;99.90;;;;;;5044930;28;20586;-64
2022/12/22 06:02:54;;;;;;;49.83;24.80;;;8.60;99.90;;;;;;5063268;28;20045;-64
2022/12/22 06:05:20;;;;;;;46.60;23.65;;;8.60;99.90;;;;;;5055337;28;20221;-65
2022/12/22 06:07:46;;;;;;;48.63;24.58;;;8.70;99.90;;;;;;5055504;28;20071;-65
2022/12/22 06:10:12;;;;;;;47.35;23.83;;;8.60;99.90;;;;;;5063507;28;20070;-65
2022/12/22 06:12:42;;;;;;;49.05;23.23;;;8.70;99.90;;;;;;5064070;28;20116;-65
2022/12/22 06:15:10;;;;;;;48.17;23.45;;;8.70;99.90;;;;;;5062151;28;20048;-65
2022/12/22 06:17:36;;;;;;;52.75;23.85;;;8.60;99.90;;;;;;5060779;28;20045;-65
2022/12/22 06:20:03;;;;;;;53.45;24.23;;;8.70;99.90;;;;;;5083362;28;20044;-65
2022/12/22 06:22:29;;;;;;;53.85;25.42;;;8.70;99.90;;;;;;5064504;28;20698;-67
2022/12/22 06:24:54;;;;;;;57.25;25.15;;;8.70;99.90;;;;;;5064213;28;20064;-66
2022/12/22 06:27:20;;;;;;;55.30;24.25;;;8.70;99.90;;;;;;5046988;28;20075;-66
2022/12/22 06:29:46;;;;;;;59.17;24.95;;;8.60;99.90;;;;;;5068025;28;20095;-66
2022/12/22 06:32:11;;;;;;;62.75;26.08;;;8.70;99.90;;;;;;5049420;28;20043;-66
2022/12/22 06:34:37;;;;;;;62.03;26.58;;;8.80;99.90;;;;;;5083794;28;20063;-65
2022/12/22 06:37:03;;;;;;;63.40;25.88;;;8.70;99.90;;;;;;5046610;28;20048;-65
2022/12/22 06:39:28;;;;;;;58.67;24.77;;;8.80;99.90;;;;;;5062754;28;20059;-65
2022/12/22 06:44:38;;;;;;;62.80;25.45;;;8.60;99.90;;;;;;5082729;28;20075;-65
2022/12/22 06:47:04;;;;;;;54.95;23.80;;;8.60;99.90;;;;;;5075971;28;20040;-66
2022/12/22 06:49:30;;;;;;;62.08;26.30;;;8.60;99.90;;;;;;5083831;28;20037;-65
2022/12/22 06:51:55;;;;;;;56.60;24.17;;;8.70;99.90;;;;;;5062153;28;20052;-65
2022/12/22 06:54:21;;;;;;;62.15;25.20;;;8.60;99.90;;;;;;5084050;28;20088;-65
2022/12/22 06:56:47;;;;;;;57.95;24.02;;;8.60;99.90;;;;;;5059743;28;20076;-65
2022/12/22 06:59:13;;;;;;;59.53;25.33;;;8.60;99.90;;;;;;5063196;28;20052;-65
2022/12/22 07:01:39;;;;;;;58.85;25.17;;;8.50;99.90;;;;;;5057144;28;20079;-65
2022/12/22 07:04:04;;;;;;;59.40;23.60;;;8.50;99.90;;;;;;5069492;28;20130;-66
2022/12/22 07:06:30;;;;;;;51.83;24.33;;;8.30;99.90;;;;;;5055396;28;20254;-66
2022/12/22 07:08:56;;;;;;;52.03;23.35;;;8.30;99.90;;;;;;5024807;28;20072;-66
2022/12/22 07:11:22;;;;;;;52.70;23.48;;;8.10;99.90;;;;;;5053765;28;20045;-66
2022/12/22 07:13:47;;;;;;;54.08;23.30;;;8.10;99.90;;;;;;5040234;28;20135;-66
2022/12/22 07:16:13;;;;;;;49.25;22.60;;;8.10;99.90;;;;;;5058598;28;20051;-66
2022/12/22 07:18:41;;;;;;;52.33;23.30;;;8.00;99.90;;;;;;5052413;28;20101;-66
2022/12/22 07:21:09;;;;;;;52.78;23.00;;;7.90;99.90;;;;;;5052192;28;20080;-66
2022/12/22 07:23:35;;;;;;;56.25;23.38;;;7.90;99.90;;;;;;5057095;28;20049;-67
2022/12/22 07:26:02;;;;;;;57.25;25.65;;;7.90;99.90;;;;;;5039648;28;20053;-66
2022/12/22 07:28:28;;;;;;;51.63;22.55;;;7.70;99.90;;;;;;5050451;28;20045;-66
2022/12/22 07:30:54;;;;;;;58.88;23.30;;;7.50;99.90;;;;;;5059491;28;20047;-66
2022/12/22 07:33:20;;;;;;;56.20;23.00;;;7.20;99.90;;;;;;5036028;28;20610;-66
2022/12/22 07:35:46;;;;;;;57.95;23.77;;;7.10;99.90;;;;;;5032610;28;20306;-67
2022/12/22 07:38:12;;;;;;;62.08;23.55;;;7.10;99.90;;;;;;5036160;28;20045;-66
2022/12/22 07:40:38;;;;;;;68.22;23.90;;;7.10;99.90;;;;;;5044947;28;20045;-66
2022/12/22 07:43:03;;;;;;;70.25;23.77;;;6.80;99.90;;;;;;5030529;28;20067;-66
2022/12/22 07:45:29;;;;;;;69.03;25.55;;;6.80;99.90;;;;;;5064500;28;20084;-66
2022/12/22 07:47:59;;;;;;;80.18;25.23;;;6.90;99.90;;;;;;5039193;28;20060;-66
2022/12/22 07:50:24;;;;;;;371.05;28.63;;;6.80;99.90;;;;;;5039995;28;20876;-66
2022/12/22 07:53:01;;;;;;;59.38;22.40;;;6.70;99.90;;;;;;5039762;28;20189;-66
2022/12/22 07:55:30;;;;;;;81.80;25.17;;;6.60;99.90;;;;;;5033087;28;20112;-66
2022/12/22 07:57:56;;;;;;;114.07;25.15;;;6.50;99.90;;;;;;5055133;28;20496;-67
2022/12/22 08:00:23;;;;;;;87.82;24.17;;;6.50;99.90;;;;;;5051499;28;20111;-66
2022/12/22 08:02:50;;;;;;;122.63;23.10;;;6.30;99.90;;;;;;5053296;28;20489;-66
2022/12/22 08:05:16;;;;;;;75.35;20.05;;;6.20;99.90;;;;;;5034794;28;20900;-66
2022/12/22 08:07:42;;;;;;;89.47;20.48;;;6.30;99.90;;;;;;5052866;28;20272;-66
2022/12/22 08:10:08;;;;;;;73.18;22.17;;;6.30;99.90;;;;;;5032508;28;20362;-66
2022/12/22 08:12:34;;;;;;;86.03;25.75;;;6.60;99.90;;;;;;5052163;28;20048;-66
2022/12/22 08:15:00;;;;;;;88.78;24.88;;;6.70;99.90;;;;;;5031261;28;20452;-66
2022/12/22 08:17:26;;;;;;;83.57;25.80;;;7.00;99.90;;;;;;5055533;28;20048;-66
2022/12/22 08:19:53;;;;;;;83.68;26.15;;;7.10;99.90;;;;;;5040440;28;20071;-66
2022/12/22 08:22:22;;;;;;;77.60;23.50;;;7.20;99.90;;;;;;5071253;28;20075;-66
2022/12/22 08:24:49;;;;;;;68.05;22.80;;;7.20;99.90;;;;;;5052675;28;20138;-66
2022/12/22 08:27:19;;;;;;;64.13;21.10;;;7.10;99.90;;;;;;5063871;28;20044;-66
2022/12/22 08:29:51;;;;;;;56.88;20.90;;;7.00;99.90;;;;;;5035342;28;20060;-66
2022/12/22 08:32:16;;;;;;;59.88;22.75;;;7.20;99.90;;;;;;5072393;28;20041;-66
2022/12/22 08:34:42;;;;;;;56.90;19.42;;;7.00;99.90;;;;;;5051679;28;20083;-66
2022/12/22 08:37:14;;;;;;;64.90;20.17;;;7.20;99.90;;;;;;5038064;28;20077;-66
2022/12/22 08:39:41;;;;;;;53.90;19.80;;;7.20;99.90;;;;;;5032129;28;20132;-66
2022/12/22 08:42:10;;;;;;;60.72;20.77;;;7.00;99.90;;;;;;5051797;28;20120;-66
2022/12/22 08:44:37;;;;;;;64.90;22.02;;;7.20;99.90;;;;;;5055865;28;20057;-66
2022/12/22 08:47:04;;;;;;;60.08;22.13;;;7.10;99.90;;;;;;5068478;28;21082;-66
2022/12/22 08:49:30;;;;;;;61.05;21.60;;;7.30;99.90;;;;;;5038147;28;20049;-66
2022/12/22 08:51:56;;;;;;;56.35;20.85;;;7.20;99.90;;;;;;5050613;28;20066;-66
2022/12/22 08:54:22;;;;;;;53.53;20.10;;;7.30;99.90;;;;;;5059528;28;20401;-66
2022/12/22 08:56:48;;;;;;;59.03;22.17;;;7.30;99.90;;;;;;5052670;28;20078;-65
2022/12/22 08:59:15;;;;;;;48.10;18.45;;;7.20;99.90;;;;;;5034237;28;20157;-65
2022/12/22 09:01:43;;;;;;;53.00;19.60;;;7.20;99.90;;;;;;5069291;28;20044;-65
2022/12/22 09:04:11;;;;;;;58.08;22.67;;;7.20;99.90;;;;;;5040018;28;20056;-65
2022/12/22 09:06:36;;;;;;;53.08;19.98;;;7.20;99.90;;;;;;5063836;28;20059;-65
2022/12/22 09:09:04;;;;;;;57.58;20.90;;;7.00;99.90;;;;;;5054695;28;20480;-66
2022/12/22 09:11:30;;;;;;;57.38;20.70;;;7.00;99.90;;;;;;5061047;28;20036;-67
2022/12/22 09:13:59;;;;;;;54.05;20.85;;;7.00;99.90;;;;;;5055159;28;20104;-65
2022/12/22 09:16:27;;;;;;;59.85;19.95;;;7.00;99.90;;;;;;5073703;28;20063;-65
2022/12/22 09:18:54;;;;;;;58.10;21.80;;;7.10;99.90;;;;;;5054839;28;20140;-65
2022/12/22 09:21:20;;;;;;;57.13;20.02;;;7.00;99.90;;;;;;5060502;28;20128;-65
2022/12/22 09:23:46;;;;;;;50.80;19.83;;;7.00;99.90;;;;;;5063258;28;20045;-65
2022/12/22 09:26:15;;;;;;;51.70;18.70;;;7.10;99.90;;;;;;5040710;28;20566;-65
2022/12/22 09:28:41;;;;;;;45.58;18.17;;;7.00;99.90;;;;;;5037540;28;20063;-65
2022/12/22 09:31:06;;;;;;;49.20;17.90;;;7.10;99.90;;;;;;5050211;28;20072;-65
2022/12/22 09:33:35;;;;;;;52.78;20.13;;;7.20;99.90;;;;;;5052462;28;20049;-65
2022/12/22 09:36:14;;;;;;;42.78;18.00;;;7.10;99.90;;;;;;5046283;28;20069;-65
2022/12/22 09:38:40;;;;;;;48.92;17.08;;;7.00;99.90;;;;;;5062545;28;20274;-65
2022/12/22 09:41:21;;;;;;;48.42;18.38;;;7.00;99.90;;;;;;5066811;28;20098;-65
2022/12/22 09:43:47;;;;;;;44.80;17.55;;;6.90;99.90;;;;;;5045078;28;20045;-65
2022/12/22 09:46:25;;;;;;;44.00;16.60;;;6.90;99.90;;;;;;5023114;28;20532;-64
2022/12/22 09:48:52;;;;;;;53.42;17.70;;;6.90;99.90;;;;;;5043266;28;20152;-65
2022/12/22 09:51:18;;;;;;;49.33;19.25;;;7.10;99.90;;;;;;5030831;28;20082;-64
2022/12/22 09:53:46;;;;;;;46.80;17.35;;;7.10;99.90;;;;;;5031705;28;20083;-64
2022/12/22 09:56:14;;;;;;;39.88;15.77;;;6.90;99.90;;;;;;5039091;28;20325;-64
2022/12/22 09:58:41;;;;;;;37.17;14.88;;;7.00;99.90;;;;;;5030723;28;20046;-64
2022/12/22 10:01:31;;;;;;;36.47;13.88;;;7.00;99.90;;;;;;5030788;28;20041;-65
2022/12/22 10:04:14;;;;;;;45.63;15.93;;;7.00;99.90;;;;;;5014126;28;20061;-65
2022/12/22 10:07:03;;;;;;;41.00;15.00;;;6.80;99.90;;;;;;5049993;28;20070;-64
2022/12/22 10:09:31;;;;;;;44.97;15.02;;;7.00;99.90;;;;;;5021424;28;20374;-64
2022/12/22 10:12:00;;;;;;;38.78;14.02;;;6.90;99.90;;;;;;5036852;28;20069;-65
2022/12/22 10:14:41;;;;;;;35.40;14.95;;;6.90;99.90;;;;;;5025620;28;20057;-64
2022/12/22 10:17:33;;;;;;;27.52;14.23;;;6.80;99.90;;;;;;5052203;28;20109;-64
2022/12/22 10:20:07;;;;;;;28.13;11.70;;;6.90;99.90;;;;;;5022701;28;20060;-64
2022/12/22 10:22:46;;;;;;;29.98;12.57;;;6.80;99.90;;;;;;5058745;28;20073;-64
2022/12/22 10:25:37;;;;;;;41.17;13.50;;;6.70;99.90;;;;;;5025966;28;20830;-64
2022/12/22 10:28:07;;;;;;;32.97;12.15;;;6.60;99.90;;;;;;5045189;28;20096;-64
2022/12/22 10:30:36;;;;;;;33.85;14.80;;;6.80;99.90;;;;;;5010471;28;20569;-65
2022/12/22 10:33:11;;;;;;;29.60;13.25;;;6.80;99.90;;;;;;5039806;28;20057;-64
2022/12/22 10:35:48;;;;;;;34.08;13.25;;;6.80;99.90;;;;;;4996932;28;20458;-64
2022/12/22 10:38:32;;;;;;;30.40;13.52;;;7.00;99.90;;;;;;5031508;28;20053;-64
2022/12/22 10:41:01;;;;;;;28.98;13.32;;;6.90;99.90;;;;;;5022419;28;20108;-64
2022/12/22 10:43:31;;;;;;;33.72;13.63;;;7.00;99.90;;;;;;5036376;28;20513;-66
2022/12/22 10:45:58;;;;;;;36.00;14.07;;;7.30;99.90;;;;;;5041803;28;20391;-64
2022/12/22 10:48:36;;;;;;;30.02;13.15;;;7.20;99.90;;;;;;5060569;28;20044;-65
2022/12/22 10:51:05;;;;;;;36.35;13.40;;;7.20;99.90;;;;;;5033079;28;20057;-64
2022/12/22 10:53:38;;;;;;;27.67;12.63;;;7.20;99.90;;;;;;5010746;28;20049;-66
2022/12/22 10:56:05;;;;;;;29.42;13.68;;;7.20;99.90;;;;;;5040975;28;20044;-64
2022/12/22 10:58:48;;;;;;;27.08;13.02;;;7.20;99.90;;;;;;5049297;28;20049;-65
2022/12/22 11:01:27;;;;;;;32.42;13.05;;;7.30;99.90;;;;;;5027583;28;20048;-64
2022/12/22 11:03:52;;;;;;;29.70;13.65;;;7.50;99.90;;;;;;5016215;28;20051;-65
2022/12/22 11:06:18;;;;;;;31.23;13.70;;;7.60;99.90;;;;;;5025370;28;20060;-65
2022/12/22 11:08:44;;;;;;;31.08;13.45;;;7.50;99.90;;;;;;5026953;28;20049;-65
2022/12/22 11:11:21;;;;;;;25.63;13.50;;;7.60;99.90;;;;;;5047731;28;20119;-65
2022/12/22 11:14:11;;;;;;;26.38;12.50;;;7.70;99.90;;;;;;5049372;28;20299;-65
2022/12/22 11:16:59;;;;;;;24.58;11.73;;;7.80;99.90;;;;;;5051408;28;20135;-65
2022/12/22 11:19:45;;;;;;;24.42;11.63;;;7.80;99.90;;;;;;5046601;28;20049;-64
2022/12/22 11:22:36;;;;;;;24.75;11.32;;;7.80;99.90;;;;;;5051387;28;20070;-65
2022/12/22 11:25:23;;;;;;;23.35;11.75;;;8.00;99.90;;;;;;5027592;28;20080;-65
2022/12/22 11:28:11;;;;;;;24.80;10.35;;;8.00;99.90;;;;;;5056745;28;20044;-64
2022/12/22 11:30:52;;;;;;;25.88;11.70;;;7.90;99.90;;;;;;5042534;28;20099;-65
2022/12/22 11:33:30;;;;;;;21.73;10.07;;;8.00;99.90;;;;;;5045870;28;20036;-65
2022/12/22 11:36:00;;;;;;;20.80;11.07;;;8.10;99.90;;;;;;5020322;28;20080;-65
2022/12/22 11:38:35;;;;;;;22.70;11.13;;;7.90;99.90;;;;;;5058371;28;20483;-65
2022/12/22 11:41:29;;;;;;;19.20;10.45;;;7.90;99.90;;;;;;5037732;28;20718;-65
2022/12/22 11:44:16;;;;;;;20.58;10.48;;;7.70;99.90;;;;;;5045548;28;20059;-64
2022/12/22 11:47:16;;;;;;;24.30;10.20;;;7.70;99.90;;;;;;5054869;28;20041;-64
2022/12/22 11:49:47;;;;;;;22.67;10.98;;;7.70;99.90;;;;;;5044350;28;20048;-64
2022/12/22 11:52:36;;;;;;;21.08;10.13;;;7.60;99.90;;;;;;5076027;28;20041;-65
2022/12/22 11:55:18;;;;;;;19.38;9.70;;;7.60;99.90;;;;;;5045872;28;20077;-65
2022/12/22 11:58:34;;;;;;;21.90;9.85;;;7.90;99.90;;;;;;5051255;28;20082;-64
2022/12/22 12:01:18;;;;;;;26.48;11.18;;;7.90;99.90;;;;;;5002978;28;20546;-65
2022/12/22 12:03:44;;;;;;;22.88;10.25;;;8.10;99.90;;;;;;4994187;28;20058;-66
2022/12/22 12:06:32;;;;;;;21.67;10.60;;;8.10;99.90;;;;;;5005197;28;20333;-64
2022/12/22 12:09:26;;;;;;;30.85;11.43;;;8.20;99.90;;;;;;4997723;28;20212;-67
2022/12/22 12:12:10;;;;;;;21.88;10.85;;;8.10;99.90;;;;;;4985332;28;20225;-65
2022/12/22 12:15:06;;;;;;;18.35;10.45;;;8.10;99.90;;;;;;4976833;28;20100;-65
2022/12/22 12:17:58;;;;;;;19.20;10.55;;;8.20;99.90;;;;;;4987354;28;20082;-69
2022/12/22 12:20:37;;;;;;;19.70;11.00;;;8.10;99.90;;;;;;4992627;28;20057;-64
2022/12/22 12:23:37;;;;;;;23.05;11.80;;;8.10;99.90;;;;;;4997876;28;20068;-64
2022/12/22 12:26:25;;;;;;;19.63;10.05;;;8.20;99.90;;;;;;4986330;28;20105;-64
2022/12/22 12:29:05;;;;;;;19.50;9.48;;;8.20;99.90;;;;;;5004200;28;20045;-67
2022/12/22 12:31:45;;;;;;;21.55;9.10;;;8.10;99.90;;;;;;4990186;28;20548;-64
2022/12/22 12:34:15;;;;;;;24.52;10.38;;;8.30;99.90;;;;;;4987275;28;20066;-67
2022/12/22 12:36:49;;;;;;;17.13;8.93;;;8.20;99.90;;;;;;5013209;28;20135;-64
2022/12/22 12:39:31;;;;;;;17.23;9.32;;;8.30;99.90;;;;;;5059121;28;20064;-65
2022/12/22 12:41:56;;;;;;;19.30;8.13;;;8.10;99.90;;;;;;5043811;28;20560;-66
2022/12/22 12:44:26;;;;;;;16.58;10.05;;;8.20;99.90;;;;;;5061539;28;20057;-66
2022/12/22 12:46:58;;;;;;;18.50;8.15;;;8.20;99.90;;;;;;5071995;28;20040;-66
2022/12/22 12:49:33;;;;;;;22.00;8.75;;;8.40;99.90;;;;;;5068052;28;20045;-66
2022/12/22 12:52:03;;;;;;;20.98;8.48;;;8.40;99.90;;;;;;5071422;28;20056;-66
2022/12/22 12:54:28;;;;;;;16.80;7.95;;;8.50;99.90;;;;;;5047145;28;20118;-66
2022/12/22 12:57:01;;;;;;;18.48;8.60;;;8.40;99.90;;;;;;5058624;28;20110;-66
2022/12/22 12:59:57;;;;;;;15.18;8.60;;;8.60;99.90;;;;;;5042726;28;20083;-66
2022/12/22 13:02:26;;;;;;;18.52;7.80;;;8.50;99.90;;;;;;5046592;28;20060;-66
2022/12/22 13:05:08;;;;;;;14.48;8.38;;;8.70;99.90;;;;;;5050739;28;20047;-66
2022/12/22 13:08:11;;;;;;;18.10;7.38;;;8.70;99.90;;;;;;5055697;28;20045;-66
2022/12/22 13:10:39;;;;;;;15.10;7.50;;;8.80;99.90;;;;;;5044032;28;20124;-66
2022/12/22 13:13:25;;;;;;;16.08;8.00;;;8.70;99.90;;;;;;5057832;28;20080;-66
2022/12/22 13:16:06;;;;;;;18.58;8.60;;;8.70;99.90;;;;;;5036231;28;20377;-66
2022/12/22 13:18:48;;;;;;;16.75;8.00;;;8.80;99.90;;;;;;5061128;28;20052;-66
2022/12/22 13:21:26;;;;;;;16.90;8.30;;;8.90;99.90;;;;;;5050258;28;20119;-66
2022/12/22 13:23:54;;;;;;;18.33;8.18;;;9.00;99.90;;;;;;5045059;28;20489;-66
2022/12/22 13:26:26;;;;;;;18.38;11.15;;;8.90;99.90;;;;;;5046716;28;20318;-66
2022/12/22 13:29:09;;;;;;;19.73;8.43;;;9.10;99.90;;;;;;5059727;28;20112;-67
2022/12/22 13:31:44;;;;;;;21.60;9.05;;;9.10;99.90;;;;;;5031867;28;20333;-66
2022/12/22 13:34:35;;;;;;;17.30;8.23;;;9.20;99.90;;;;;;5038564;28;20045;-66
2022/12/22 13:37:24;;;;;;;21.63;8.45;;;9.10;99.90;;;;;;5044156;28;20080;-66
2022/12/22 13:40:07;;;;;;;20.08;8.98;;;9.20;99.90;;;;;;5050228;28;20051;-66
2022/12/22 13:42:49;;;;;;;18.25;9.50;;;9.10;99.90;;;;;;5053552;28;20068;-67
2022/12/22 13:45:42;;;;;;;16.55;8.23;;;9.20;99.90;;;;;;5041939;28;20044;-67
2022/12/22 13:48:17;;;;;;;20.23;8.48;;;9.20;99.90;;;;;;5086407;28;20111;-66
2022/12/22 13:50:58;;;;;;;17.80;8.25;;;9.20;99.90;;;;;;5042586;28;20056;-67
2022/12/22 13:53:30;;;;;;;13.93;8.20;;;9.20;99.90;;;;;;5046115;28;20080;-66
2022/12/22 13:55:56;;;;;;;20.92;8.50;;;9.30;99.90;;;;;;5056812;28;20060;-66
2022/12/22 13:58:28;;;;;;;17.73;9.75;;;9.30;99.90;;;;;;5055832;28;20045;-66
2022/12/22 14:01:15;;;;;;;21.80;9.98;;;9.40;99.90;;;;;;5061244;28;20138;-66
2022/12/22 14:04:02;;;;;;;16.17;8.40;;;9.30;99.90;;;;;;5054527;28;20074;-66
2022/12/22 14:06:35;;;;;;;18.15;7.63;;;9.40;99.90;;;;;;5050450;28;20049;-66
2022/12/22 14:09:18;;;;;;;15.70;8.02;;;9.20;99.90;;;;;;5048464;28;20056;-66
2022/12/22 14:11:47;;;;;;;15.30;7.72;;;9.30;99.90;;;;;;5050364;28;20052;-65
2022/12/22 14:14:40;;;;;;;17.27;8.27;;;9.30;99.90;;;;;;5053813;28;20109;-71
2022/12/22 14:17:19;;;;;;;15.13;6.85;;;9.40;99.90;;;;;;5014972;28;20064;-66
2022/12/22 14:19:52;;;;;;;17.60;7.10;;;9.50;99.90;;;;;;5047224;28;20057;-67
2022/12/22 14:22:27;;;;;;;15.55;7.85;;;9.40;99.90;;;;;;5054495;28;20049;-66
2022/12/22 14:25:00;;;;;;;16.23;7.18;;;9.20;99.90;;;;;;5050071;28;20131;-67
2022/12/22 14:27:34;;;;;;;16.50;7.75;;;9.20;99.90;;;;;;5044808;28;20041;-67
2022/12/22 14:30:04;;;;;;;17.05;7.82;;;9.00;99.90;;;;;;5033789;28;20528;-67
2022/12/22 14:32:35;;;;;;;13.13;6.40;;;9.00;99.90;;;;;;5046105;28;20100;-67
2022/12/22 14:35:01;;;;;;;17.15;8.32;;;9.00;99.90;;;;;;5051037;28;20049;-66
2022/12/22 14:37:27;;;;;;;18.50;9.05;;;8.80;99.90;;;;;;5033088;28;20075;-67
2022/12/22 14:39:56;;;;;;;14.85;7.10;;;8.80;99.90;;;;;;5059968;28;20048;-67
2022/12/22 14:42:22;;;;;;;19.40;7.65;;;8.80;99.90;;;;;;5052459;28;20087;-67
2022/12/22 14:44:48;;;;;;;15.60;7.88;;;8.90;99.90;;;;;;5047058;28;20421;-65
2022/12/22 14:47:18;;;;;;;16.65;8.57;;;8.90;99.90;;;;;;5056706;28;20066;-65
2022/12/22 14:49:56;;;;;;;19.27;8.05;;;8.90;99.90;;;;;;5043870;28;20412;-65
2022/12/22 14:52:42;;;;;;;13.05;8.57;;;8.90;99.90;;;;;;5064857;28;20100;-66
2022/12/22 14:55:35;;;;;;;15.27;7.15;;;8.80;99.90;;;;;;5046846;28;20056;-65
2022/12/22 14:58:12;;;;;;;15.25;6.95;;;8.80;99.90;;;;;;5059693;28;20040;-65
2022/12/22 15:00:43;;;;;;;17.98;7.20;;;8.90;99.90;;;;;;5038110;28;20052;-68
2022/12/22 15:03:27;;;;;;;15.70;7.18;;;8.90;99.90;;;;;;5041478;28;20120;-65
2022/12/22 15:05:53;;;;;;;17.80;9.63;;;8.90;99.90;;;;;;5045498;28;20040;-66
2022/12/22 15:08:38;;;;;;;16.80;7.32;;;8.80;99.90;;;;;;5049370;28;20048;-65
2022/12/22 15:11:10;;;;;;;13.85;7.25;;;8.70;99.90;;;;;;5025571;28;20048;-65
2022/12/22 15:13:36;;;;;;;12.70;6.60;;;8.70;99.90;;;;;;5041595;28;20321;-65
2022/12/22 15:16:02;;;;;;;12.52;7.82;;;8.70;99.90;;;;;;5050197;28;20063;-64
2022/12/22 15:18:28;;;;;;;12.00;6.45;;;8.70;99.90;;;;;;5058491;28;20044;-67
2022/12/22 15:20:56;;;;;;;12.73;6.85;;;8.80;99.90;;;;;;5032807;28;20096;-66
2022/12/22 15:23:22;;;;;;;15.13;6.88;;;8.70;99.90;;;;;;5066898;28;20045;-66
2022/12/22 15:25:47;;;;;;;14.50;7.28;;;8.70;99.90;;;;;;5050719;28;20057;-66
2022/12/22 15:28:13;;;;;;;14.43;6.32;;;8.80;99.90;;;;;;5031717;28;20071;-66
2022/12/22 15:30:40;;;;;;;12.82;6.63;;;8.70;99.90;;;;;;5043872;28;20044;-64
2022/12/22 15:33:17;;;;;;;12.68;6.25;;;8.70;99.90;;;;;;5046480;28;20049;-65
2022/12/22 15:35:44;;;;;;;12.95;5.90;;;8.80;99.90;;;;;;5039597;28;20052;-65
2022/12/22 15:38:15;;;;;;;12.48;5.93;;;8.70;99.90;;;;;;5048133;28;20476;-65
2022/12/22 15:40:41;;;;;;;14.90;6.60;;;8.80;99.90;;;;;;5061213;28;20217;-65
2022/12/22 15:43:07;;;;;;;15.20;6.40;;;8.60;99.90;;;;;;5030809;28;20064;-65
2022/12/22 15:45:35;;;;;;;14.27;6.75;;;8.70;99.90;;;;;;5042256;28;20144;-65
2022/12/22 15:48:02;;;;;;;9.90;5.72;;;8.60;99.90;;;;;;5068158;28;20044;-65
2022/12/22 15:50:40;;;;;;;14.95;6.75;;;8.70;99.90;;;;;;5046183;28;20533;-65
2022/12/22 15:53:08;;;;;;;13.68;6.57;;;8.70;99.90;;;;;;5049783;28;20053;-65
2022/12/22 15:55:43;;;;;;;13.75;7.45;;;8.60;99.90;;;;;;5047208;28;20048;-66
2022/12/22 15:58:16;;;;;;;15.80;7.55;;;8.60;99.90;;;;;;5057157;28;20547;-66
2022/12/22 16:00:42;;;;;;;13.55;6.88;;;8.70;99.90;;;;;;5041689;28;20978;-65
2022/12/22 16:03:10;;;;;;;15.90;7.60;;;8.70;99.90;;;;;;5059608;28;21530;-65
2022/12/22 16:05:37;;;;;;;13.27;7.75;;;8.60;99.90;;;;;;5034019;28;20049;-66
2022/12/22 16:08:04;;;;;;;12.85;7.40;;;8.70;99.90;;;;;;5043096;28;20074;-67
2022/12/22 16:10:32;;;;;;;11.60;6.68;;;8.70;99.90;;;;;;5036816;28;20473;-66
2022/12/22 16:13:02;;;;;;;16.33;7.85;;;8.70;99.90;;;;;;5043926;28;20571;-67
2022/12/22 16:15:30;;;;;;;15.10;8.13;;;8.70;99.90;;;;;;5047072;28;20580;-67
2022/12/22 16:18:00;;;;;;;12.00;8.05;;;8.70;99.90;;;;;;5053359;28;20484;-66
2022/12/22 16:20:29;;;;;;;14.75;9.05;;;8.60;99.90;;;;;;5043939;28;20056;-68
2022/12/22 16:22:55;;;;;;;18.10;9.73;;;8.60;99.90;;;;;;5053421;28;20418;-67
2022/12/22 16:25:30;;;;;;;19.40;10.90;;;8.60;99.90;;;;;;5030313;28;20083;-68
2022/12/22 16:27:55;;;;;;;16.92;10.25;;;8.70;99.90;;;;;;5052687;28;20313;-68
2022/12/22 16:30:24;;;;;;;19.52;12.13;;;8.60;99.90;;;;;;5045849;28;20044;-68
2022/12/22 16:32:50;;;;;;;17.90;11.77;;;8.70;99.90;;;;;;5044724;28;20048;-68
2022/12/22 16:35:19;;;;;;;18.27;11.98;;;8.60;99.90;;;;;;5042909;28;20053;-67
2022/12/22 16:37:47;;;;;;;20.30;13.02;;;8.80;99.90;;;;;;5041276;28;20045;-68